sensor_id;sensor_type;location;lat;lon;timestamp;temperature;humidity
50586;DHT22;36542;51.700;8.846;2022-12-16T00:00:03;-6.70;99.90
50586;DHT22;36542;51.700;8.846;2022-12-16T00:02:29;-6.50;99.90
50586;DHT22;36542;51.700;8.846;2022-12-16T00:04:54;-6.70;99.90
50586;DHT22;36542;51.700;8.846;2022-12-16T00:07:22;-6.90;99.90
50586;DHT22;36542;51.700;8.846;2022-12-16T00:09:47;-7.10;99.90
50586;DHT22;36542;51.700;8.846;2022-12-16T00:12:13;-7.00;99.90
50586;DHT22;36542;51.700;8.846;2022-12-16T00:14:38;-7.10;99.90
50586;DHT22;36542;51.700;8.846;2022-12-16T00:17:04;-7.20;99.90
50586;DHT22;36542;51.700;8.846;2022-12-16T00:19:29;-7.20;99.90
50586;DHT22;36542;51.700;8.846;2022-12-16T00:21:56;-7.30;99.90
50586;DHT22;36542;51.700;8.846;2022-12-16T00:24:21;-7.40;99.90
50586;DHT22;36542;51.700;8.846;2022-12-16T00:26:47;-7.40;99.90
50586;DHT22;36542;51.700;8.846;2022-12-16T00:29:12;-7.50;99.90
50586;DHT22;36542;51.700;8.846;2022-12-16T00:31:38;-7.40;99.90
50586;DHT22;36542;51.700;8.846;2022-12-16T00:34:03;-7.40;99.90
50586;DHT22;36542;51.700;8.846;2022-12-16T00:36:29;-7.40;99.90
50586;DHT22;36542;51.700;8.846;2022-12-16T00:38:54;-7.40;99.90
50586;DHT22;36542;51.700;8.846;2022-12-16T00:41:20;-7.30;99.90
50586;DHT22;36542;51.700;8.846;2022-12-16T00:43:46;-7.20;99.90
50586;DHT22;36542;51.700;8.846;2022-12-16T00:46:12;-7.10;99.90
50586;DHT22;36542;51.700;8.846;2022-12-16T00:48:37;-7.10;99.90
50586;DHT22;36542;51.700;8.846;2022-12-16T00:51:03;-7.10;99.90
50586;DHT22;36542;51.700;8.846;2022-12-16T00:53:28;-7.10;99.90
50586;DHT22;36542;51.700;8.846;2022-12-16T00:56:20;-7.10;99.90
50586;DHT22;36542;51.700;8.846;2022-12-16T00:58:46;-7.20;99.90
50586;DHT22;36542;51.700;8.846;2022-12-16T01:01:12;-7.20;99.90
50586;DHT22;36542;51.700;8.846;2022-12-16T01:03:38;-7.30;99.90
50586;DHT22;36542;51.700;8.846;2022-12-16T01:06:12;-7.30;99.90
50586;DHT22;36542;51.700;8.846;2022-12-16T01:08:39;-7.40;99.90
50586;DHT22;36542;51.700;8.846;2022-12-16T01:11:05;-7.40;99.90
50586;DHT22;36542;51.700;8.846;2022-12-16T01:13:30;-7.40;99.90
50586;DHT22;36542;51.700;8.846;2022-12-16T01:15:59;-7.40;99.90
50586;DHT22;36542;51.700;8.846;2022-12-16T01:18:25;-7.40;99.90
50586;DHT22;36542;51.700;8.846;2022-12-16T01:20:51;-7.40;99.90
50586;DHT22;36542;51.700;8.846;2022-12-16T01:23:16;-7.40;99.90
50586;DHT22;36542;51.700;8.846;2022-12-16T01:25:42;-7.30;99.90
50586;DHT22;36542;51.700;8.846;2022-12-16T01:28:08;-7.20;99.90
50586;DHT22;36542;51.700;8.846;2022-12-16T01:30:33;-7.10;99.90
50586;DHT22;36542;51.700;8.846;2022-12-16T01:32:59;-7.10;99.90
50586;DHT22;36542;51.700;8.846;2022-12-16T01:35:25;-7.00;99.90
50586;DHT22;36542;51.700;8.846;2022-12-16T01:37:51;-6.90;99.90
50586;DHT22;36542;51.700;8.846;2022-12-16T01:40:21;-7.00;99.90
50586;DHT22;36542;51.700;8.846;2022-12-16T01:42:48;-6.90;99.90
50586;DHT22;36542;51.700;8.846;2022-12-16T01:45:34;-6.90;99.90
50586;DHT22;36542;51.700;8.846;2022-12-16T01:51:49;-7.20;99.90
50586;DHT22;36542;51.700;8.846;2022-12-16T01:53:55;-7.30;99.90
50586;DHT22;36542;51.700;8.846;2022-12-16T01:56:23;-7.30;99.90
50586;DHT22;36542;51.700;8.846;2022-12-16T01:58:51;-7.30;99.90
50586;DHT22;36542;51.700;8.846;2022-12-16T02:01:17;-7.00;99.90
50586;DHT22;36542;51.700;8.846;2022-12-16T02:03:43;-6.80;99.90
50586;DHT22;36542;51.700;8.846;2022-12-16T02:06:09;-6.40;99.90
50586;DHT22;36542;51.700;8.846;2022-12-16T02:08:34;-6.10;99.90
50586;DHT22;36542;51.700;8.846;2022-12-16T02:16:45;-5.40;99.90
50586;DHT22;36542;51.700;8.846;2022-12-16T02:22:25;-5.30;99.90
50586;DHT22;36542;51.700;8.846;2022-12-16T02:25:10;-5.50;99.90
50586;DHT22;36542;51.700;8.846;2022-12-16T02:28:03;-5.80;99.90
50586;DHT22;36542;51.700;8.846;2022-12-16T02:30:44;-6.00;99.90
50586;DHT22;36542;51.700;8.846;2022-12-16T02:36:01;-6.80;99.90
50586;DHT22;36542;51.700;8.846;2022-12-16T02:38:40;-7.20;99.90
50586;DHT22;36542;51.700;8.846;2022-12-16T02:41:20;-7.40;99.90
50586;DHT22;36542;51.700;8.846;2022-12-16T02:43:55;-7.50;99.90
50586;DHT22;36542;51.700;8.846;2022-12-16T02:46:28;-7.50;99.90
50586;DHT22;36542;51.700;8.846;2022-12-16T02:48:55;-7.40;99.90
50586;DHT22;36542;51.700;8.846;2022-12-16T02:51:22;-7.40;99.90
50586;DHT22;36542;51.700;8.846;2022-12-16T02:53:50;-7.30;99.90
50586;DHT22;36542;51.700;8.846;2022-12-16T02:56:39;-7.30;99.90
50586;DHT22;36542;51.700;8.846;2022-12-16T03:01:56;-7.20;99.90
50586;DHT22;36542;51.700;8.846;2022-12-16T03:04:26;-7.20;99.90
50586;DHT22;36542;51.700;8.846;2022-12-16T03:06:57;-7.20;99.90
50586;DHT22;36542;51.700;8.846;2022-12-16T03:09:29;-7.20;99.90
50586;DHT22;36542;51.700;8.846;2022-12-16T03:11:56;-6.90;99.90
50586;DHT22;36542;51.700;8.846;2022-12-16T03:14:27;-7.10;99.90
50586;DHT22;36542;51.700;8.846;2022-12-16T03:16:55;-7.40;99.90
50586;DHT22;36542;51.700;8.846;2022-12-16T03:19:23;-7.80;99.90
50586;DHT22;36542;51.700;8.846;2022-12-16T03:24:26;-7.90;99.90
50586;DHT22;36542;51.700;8.846;2022-12-16T03:27:04;-8.00;99.90
50586;DHT22;36542;51.700;8.846;2022-12-16T03:29:44;-8.00;99.90
50586;DHT22;36542;51.700;8.846;2022-12-16T03:32:34;-7.80;99.90
50586;DHT22;36542;51.700;8.846;2022-12-16T03:35:11;-7.70;99.90
50586;DHT22;36542;51.700;8.846;2022-12-16T03:37:39;-7.60;99.90
50586;DHT22;36542;51.700;8.846;2022-12-16T03:40:07;-7.70;99.90
50586;DHT22;36542;51.700;8.846;2022-12-16T03:42:34;-7.50;99.90
50586;DHT22;36542;51.700;8.846;2022-12-16T03:45:01;-7.50;99.90
50586;DHT22;36542;51.700;8.846;2022-12-16T03:47:28;-7.50;99.90
50586;DHT22;36542;51.700;8.846;2022-12-16T03:49:54;-7.30;99.90
50586;DHT22;36542;51.700;8.846;2022-12-16T03:52:20;-7.20;99.90
50586;DHT22;36542;51.700;8.846;2022-12-16T03:54:46;-7.10;99.90
50586;DHT22;36542;51.700;8.846;2022-12-16T03:57:11;-7.20;99.90
50586;DHT22;36542;51.700;8.846;2022-12-16T03:59:37;-7.30;99.90
50586;DHT22;36542;51.700;8.846;2022-12-16T04:02:02;-7.40;99.90
50586;DHT22;36542;51.700;8.846;2022-12-16T04:04:28;-7.50;99.90
50586;DHT22;36542;51.700;8.846;2022-12-16T04:06:54;-7.60;99.90
50586;DHT22;36542;51.700;8.846;2022-12-16T04:09:38;-7.50;99.90
50586;DHT22;36542;51.700;8.846;2022-12-16T04:12:03;-7.60;99.90
50586;DHT22;36542;51.700;8.846;2022-12-16T04:14:47;-7.80;99.90
50586;DHT22;36542;51.700;8.846;2022-12-16T04:17:31;-7.70;99.90
50586;DHT22;36542;51.700;8.846;2022-12-16T04:20:16;-7.50;99.90
50586;DHT22;36542;51.700;8.846;2022-12-16T04:23:01;-7.30;99.90
50586;DHT22;36542;51.700;8.846;2022-12-16T04:25:45;-7.10;99.90
50586;DHT22;36542;51.700;8.846;2022-12-16T04:28:11;-7.20;99.90
50586;DHT22;36542;51.700;8.846;2022-12-16T04:30:36;-7.40;99.90
50586;DHT22;36542;51.700;8.846;2022-12-16T04:33:08;-7.60;99.90
50586;DHT22;36542;51.700;8.846;2022-12-16T04:35:52;-7.80;99.90
50586;DHT22;36542;51.700;8.846;2022-12-16T04:38:36;-7.80;99.90
50586;DHT22;36542;51.700;8.846;2022-12-16T04:41:20;-7.80;99.90
50586;DHT22;36542;51.700;8.846;2022-12-16T04:44:04;-7.80;99.90
50586;DHT22;36542;51.700;8.846;2022-12-16T04:46:50;-7.70;99.90
50586;DHT22;36542;51.700;8.846;2022-12-16T04:49:34;-7.80;99.90
50586;DHT22;36542;51.700;8.846;2022-12-16T04:52:18;-8.00;99.90
50586;DHT22;36542;51.700;8.846;2022-12-16T04:55:03;-8.00;99.90
50586;DHT22;36542;51.700;8.846;2022-12-16T04:57:50;-8.00;99.90
50586;DHT22;36542;51.700;8.846;2022-12-16T05:00:34;-7.90;99.90
50586;DHT22;36542;51.700;8.846;2022-12-16T05:03:18;-7.90;99.90
50586;DHT22;36542;51.700;8.846;2022-12-16T05:06:02;-7.90;99.90
50586;DHT22;36542;51.700;8.846;2022-12-16T05:08:46;-7.80;99.90
50586;DHT22;36542;51.700;8.846;2022-12-16T05:11:30;-7.90;99.90
50586;DHT22;36542;51.700;8.846;2022-12-16T05:14:14;-8.00;99.90
50586;DHT22;36542;51.700;8.846;2022-12-16T05:16:58;-8.10;99.90
50586;DHT22;36542;51.700;8.846;2022-12-16T05:19:42;-8.20;99.90
50586;DHT22;36542;51.700;8.846;2022-12-16T05:22:27;-8.10;99.90
50586;DHT22;36542;51.700;8.846;2022-12-16T05:25:11;-8.10;99.90
50586;DHT22;36542;51.700;8.846;2022-12-16T05:27:55;-8.00;99.90
50586;DHT22;36542;51.700;8.846;2022-12-16T05:30:39;-7.90;99.90
50586;DHT22;36542;51.700;8.846;2022-12-16T05:33:24;-7.80;99.90
50586;DHT22;36542;51.700;8.846;2022-12-16T05:36:08;-7.60;99.90
50586;DHT22;36542;51.700;8.846;2022-12-16T05:38:53;-7.50;99.90
50586;DHT22;36542;51.700;8.846;2022-12-16T05:41:37;-7.40;99.90
50586;DHT22;36542;51.700;8.846;2022-12-16T05:44:22;-7.30;99.90
50586;DHT22;36542;51.700;8.846;2022-12-16T05:47:07;-7.30;99.90
50586;DHT22;36542;51.700;8.846;2022-12-16T05:49:51;-7.30;99.90
50586;DHT22;36542;51.700;8.846;2022-12-16T05:52:35;-7.20;99.90
50586;DHT22;36542;51.700;8.846;2022-12-16T05:55:19;-7.20;99.90
50586;DHT22;36542;51.700;8.846;2022-12-16T05:58:03;-7.30;99.90
50586;DHT22;36542;51.700;8.846;2022-12-16T06:00:47;-7.50;99.90
50586;DHT22;36542;51.700;8.846;2022-12-16T06:03:31;-7.60;99.90
50586;DHT22;36542;51.700;8.846;2022-12-16T06:06:20;-7.60;99.90
50586;DHT22;36542;51.700;8.846;2022-12-16T06:09:04;-7.60;99.90
50586;DHT22;36542;51.700;8.846;2022-12-16T06:11:49;-7.50;99.90
50586;DHT22;36542;51.700;8.846;2022-12-16T06:14:33;-7.60;99.90
50586;DHT22;36542;51.700;8.846;2022-12-16T06:17:17;-7.50;99.90
50586;DHT22;36542;51.700;8.846;2022-12-16T06:20:02;-7.40;99.90
50586;DHT22;36542;51.700;8.846;2022-12-16T06:22:51;-7.20;99.90
50586;DHT22;36542;51.700;8.846;2022-12-16T06:25:35;-7.30;99.90
50586;DHT22;36542;51.700;8.846;2022-12-16T06:28:19;-7.30;99.90
50586;DHT22;36542;51.700;8.846;2022-12-16T06:31:03;-7.20;99.90
50586;DHT22;36542;51.700;8.846;2022-12-16T06:33:47;-7.10;99.90
50586;DHT22;36542;51.700;8.846;2022-12-16T06:36:31;-7.10;99.90
50586;DHT22;36542;51.700;8.846;2022-12-16T06:39:15;-7.20;99.90
50586;DHT22;36542;51.700;8.846;2022-12-16T06:41:59;-7.20;99.90
50586;DHT22;36542;51.700;8.846;2022-12-16T06:44:43;-7.10;99.90
50586;DHT22;36542;51.700;8.846;2022-12-16T06:47:27;-7.20;99.90
50586;DHT22;36542;51.700;8.846;2022-12-16T06:50:11;-7.20;99.90
50586;DHT22;36542;51.700;8.846;2022-12-16T06:52:55;-7.30;99.90
50586;DHT22;36542;51.700;8.846;2022-12-16T06:55:39;-7.20;99.90
50586;DHT22;36542;51.700;8.846;2022-12-16T06:58:23;-7.20;99.90
50586;DHT22;36542;51.700;8.846;2022-12-16T07:01:07;-7.20;99.90
50586;DHT22;36542;51.700;8.846;2022-12-16T07:03:51;-7.40;99.90
50586;DHT22;36542;51.700;8.846;2022-12-16T07:06:35;-7.50;99.90
50586;DHT22;36542;51.700;8.846;2022-12-16T07:09:19;-7.50;99.90
50586;DHT22;36542;51.700;8.846;2022-12-16T07:12:03;-7.50;99.90
50586;DHT22;36542;51.700;8.846;2022-12-16T07:14:47;-7.50;99.90
50586;DHT22;36542;51.700;8.846;2022-12-16T07:17:31;-7.40;99.90
50586;DHT22;36542;51.700;8.846;2022-12-16T07:20:15;-7.10;99.90
50586;DHT22;36542;51.700;8.846;2022-12-16T07:22:59;-7.00;99.90
50586;DHT22;36542;51.700;8.846;2022-12-16T07:25:43;-7.00;99.90
50586;DHT22;36542;51.700;8.846;2022-12-16T07:28:28;-7.00;99.90
50586;DHT22;36542;51.700;8.846;2022-12-16T07:31:12;-7.10;99.90
50586;DHT22;36542;51.700;8.846;2022-12-16T07:33:56;-7.10;99.90
50586;DHT22;36542;51.700;8.846;2022-12-16T07:36:40;-7.20;99.90
50586;DHT22;36542;51.700;8.846;2022-12-16T07:39:24;-7.20;99.90
50586;DHT22;36542;51.700;8.846;2022-12-16T07:42:08;-7.30;99.90
50586;DHT22;36542;51.700;8.846;2022-12-16T07:44:52;-7.20;99.90
50586;DHT22;36542;51.700;8.846;2022-12-16T07:47:36;-7.10;99.90
50586;DHT22;36542;51.700;8.846;2022-12-16T07:50:20;-7.20;99.90
50586;DHT22;36542;51.700;8.846;2022-12-16T07:53:04;-7.20;99.90
50586;DHT22;36542;51.700;8.846;2022-12-16T07:55:48;-7.00;99.90
50586;DHT22;36542;51.700;8.846;2022-12-16T07:58:32;-6.90;99.90
50586;DHT22;36542;51.700;8.846;2022-12-16T08:01:16;-6.90;99.90
50586;DHT22;36542;51.700;8.846;2022-12-16T08:04:00;-6.90;99.90
50586;DHT22;36542;51.700;8.846;2022-12-16T08:06:44;-6.60;99.90
50586;DHT22;36542;51.700;8.846;2022-12-16T08:09:28;-6.30;99.90
50586;DHT22;36542;51.700;8.846;2022-12-16T08:12:13;-6.20;99.90
50586;DHT22;36542;51.700;8.846;2022-12-16T08:14:57;-6.10;99.90
50586;DHT22;36542;51.700;8.846;2022-12-16T08:17:47;-6.10;99.90
50586;DHT22;36542;51.700;8.846;2022-12-16T08:20:32;-5.80;99.90
50586;DHT22;36542;51.700;8.846;2022-12-16T08:23:16;-4.70;99.90
50586;DHT22;36542;51.700;8.846;2022-12-16T08:25:59;-3.40;99.90
50586;DHT22;36542;51.700;8.846;2022-12-16T08:28:44;-2.40;99.90
50586;DHT22;36542;51.700;8.846;2022-12-16T08:31:28;-2.10;99.90
50586;DHT22;36542;51.700;8.846;2022-12-16T08:34:12;-2.50;99.90
50586;DHT22;36542;51.700;8.846;2022-12-16T08:37:00;-2.30;99.90
50586;DHT22;36542;51.700;8.846;2022-12-16T08:39:44;-1.50;99.90
50586;DHT22;36542;51.700;8.846;2022-12-16T08:42:29;-1.30;99.90
50586;DHT22;36542;51.700;8.846;2022-12-16T08:45:13;-0.80;99.90
50586;DHT22;36542;51.700;8.846;2022-12-16T08:47:57;0.30;99.90
50586;DHT22;36542;51.700;8.846;2022-12-16T08:50:41;1.40;99.90
50586;DHT22;36542;51.700;8.846;2022-12-16T08:53:25;1.80;99.90
50586;DHT22;36542;51.700;8.846;2022-12-16T08:56:10;1.70;99.90
50586;DHT22;36542;51.700;8.846;2022-12-16T08:58:54;1.00;99.90
50586;DHT22;36542;51.700;8.846;2022-12-16T09:01:38;1.20;99.90
50586;DHT22;36542;51.700;8.846;2022-12-16T09:04:22;1.60;99.90
50586;DHT22;36542;51.700;8.846;2022-12-16T09:07:06;1.70;99.90
50586;DHT22;36542;51.700;8.846;2022-12-16T09:09:50;2.20;99.90
50586;DHT22;36542;51.700;8.846;2022-12-16T09:12:34;3.30;99.90
50586;DHT22;36542;51.700;8.846;2022-12-16T09:15:18;3.50;99.90
50586;DHT22;36542;51.700;8.846;2022-12-16T09:18:02;4.20;99.90
50586;DHT22;36542;51.700;8.846;2022-12-16T09:20:46;4.60;99.90
50586;DHT22;36542;51.700;8.846;2022-12-16T09:23:30;3.80;99.90
50586;DHT22;36542;51.700;8.846;2022-12-16T09:26:15;4.20;99.90
50586;DHT22;36542;51.700;8.846;2022-12-16T09:28:59;4.40;99.90
50586;DHT22;36542;51.700;8.846;2022-12-16T09:31:43;4.70;99.90
50586;DHT22;36542;51.700;8.846;2022-12-16T09:34:27;5.30;99.90
50586;DHT22;36542;51.700;8.846;2022-12-16T09:37:11;4.70;99.90
50586;DHT22;36542;51.700;8.846;2022-12-16T09:39:55;4.00;99.90
50586;DHT22;36542;51.700;8.846;2022-12-16T09:42:50;3.70;99.90
50586;DHT22;36542;51.700;8.846;2022-12-16T09:52:01;2.60;99.90
50586;DHT22;36542;51.700;8.846;2022-12-16T09:54:47;2.80;99.90
50586;DHT22;36542;51.700;8.846;2022-12-16T09:57:34;2.90;99.90
50586;DHT22;36542;51.700;8.846;2022-12-16T10:00:24;2.80;99.90
50586;DHT22;36542;51.700;8.846;2022-12-16T10:03:32;2.60;99.90
50586;DHT22;36542;51.700;8.846;2022-12-16T10:06:34;2.50;99.90
50586;DHT22;36542;51.700;8.846;2022-12-16T10:12:23;2.80;99.90
50586;DHT22;36542;51.700;8.846;2022-12-16T10:18:04;2.90;99.90
50586;DHT22;36542;51.700;8.846;2022-12-16T10:20:54;3.00;99.90
50586;DHT22;36542;51.700;8.846;2022-12-16T10:24:01;2.90;99.90
50586;DHT22;36542;51.700;8.846;2022-12-16T10:29:32;2.70;99.90
50586;DHT22;36542;51.700;8.846;2022-12-16T10:32:45;3.20;99.90
50586;DHT22;36542;51.700;8.846;2022-12-16T10:35:50;3.10;99.90
50586;DHT22;36542;51.700;8.846;2022-12-16T10:38:42;3.00;99.90
50586;DHT22;36542;51.700;8.846;2022-12-16T10:41:31;2.60;99.90
50586;DHT22;36542;51.700;8.846;2022-12-16T10:44:49;2.20;99.90
50586;DHT22;36542;51.700;8.846;2022-12-16T10:47:35;2.10;99.90
50586;DHT22;36542;51.700;8.846;2022-12-16T10:50:19;2.10;99.90
50586;DHT22;36542;51.700;8.846;2022-12-16T10:53:13;2.30;99.90
50586;DHT22;36542;51.700;8.846;2022-12-16T10:56:23;2.10;99.90
50586;DHT22;36542;51.700;8.846;2022-12-16T10:59:38;2.00;99.90
50586;DHT22;36542;51.700;8.846;2022-12-16T11:02:24;1.60;99.90
50586;DHT22;36542;51.700;8.846;2022-12-16T11:08:37;0.90;99.90
50586;DHT22;36542;51.700;8.846;2022-12-16T11:11:27;0.30;99.90
50586;DHT22;36542;51.700;8.846;2022-12-16T11:20:17;-0.90;99.90
50586;DHT22;36542;51.700;8.846;2022-12-16T11:23:16;-1.10;99.90
50586;DHT22;36542;51.700;8.846;2022-12-16T11:26:07;-1.10;99.90
50586;DHT22;36542;51.700;8.846;2022-12-16T11:29:05;-1.20;99.90
50586;DHT22;36542;51.700;8.846;2022-12-16T11:32:02;-1.20;99.90
50586;DHT22;36542;51.700;8.846;2022-12-16T11:34:55;-1.10;99.90
50586;DHT22;36542;51.700;8.846;2022-12-16T11:37:41;-1.10;99.90
50586;DHT22;36542;51.700;8.846;2022-12-16T11:40:28;-1.20;99.90
50586;DHT22;36542;51.700;8.846;2022-12-16T11:43:14;-1.30;99.90
50586;DHT22;36542;51.700;8.846;2022-12-16T11:46:00;-1.40;99.90
50586;DHT22;36542;51.700;8.846;2022-12-16T11:48:53;-1.40;99.90
50586;DHT22;36542;51.700;8.846;2022-12-16T11:51:39;-1.50;99.90
50586;DHT22;36542;51.700;8.846;2022-12-16T11:54:28;-1.60;99.90
50586;DHT22;36542;51.700;8.846;2022-12-16T11:57:27;-1.60;99.90
50586;DHT22;36542;51.700;8.846;2022-12-16T12:00:15;-1.60;99.90
50586;DHT22;36542;51.700;8.846;2022-12-16T12:03:06;-1.60;99.90
50586;DHT22;36542;51.700;8.846;2022-12-16T12:06:22;-1.60;99.90
50586;DHT22;36542;51.700;8.846;2022-12-16T12:09:16;-1.60;99.90
50586;DHT22;36542;51.700;8.846;2022-12-16T12:12:23;-1.60;99.90
50586;DHT22;36542;51.700;8.846;2022-12-16T12:18:23;-1.70;99.90
50586;DHT22;36542;51.700;8.846;2022-12-16T12:21:18;-1.60;99.90
50586;DHT22;36542;51.700;8.846;2022-12-16T12:27:15;-1.70;99.90
50586;DHT22;36542;51.700;8.846;2022-12-16T12:30:12;-1.70;99.90
50586;DHT22;36542;51.700;8.846;2022-12-16T12:36:00;-1.70;99.90
50586;DHT22;36542;51.700;8.846;2022-12-16T12:42:22;-1.70;99.90
50586;DHT22;36542;51.700;8.846;2022-12-16T12:45:19;-1.60;99.90
50586;DHT22;36542;51.700;8.846;2022-12-16T12:51:04;-1.50;99.90
50586;DHT22;36542;51.700;8.846;2022-12-16T12:54:07;-1.50;99.90
50586;DHT22;36542;51.700;8.846;2022-12-16T12:56:53;-1.50;99.90
50586;DHT22;36542;51.700;8.846;2022-12-16T12:59:58;-1.50;99.90
50586;DHT22;36542;51.700;8.846;2022-12-16T13:05:38;-1.50;99.90
50586;DHT22;36542;51.700;8.846;2022-12-16T13:08:30;-1.40;99.90
50586;DHT22;36542;51.700;8.846;2022-12-16T13:11:15;-1.40;99.90
50586;DHT22;36542;51.700;8.846;2022-12-16T13:13:59;-1.40;99.90
50586;DHT22;36542;51.700;8.846;2022-12-16T13:22:35;-1.30;99.90
50586;DHT22;36542;51.700;8.846;2022-12-16T13:25:40;-1.20;99.90
50586;DHT22;36542;51.700;8.846;2022-12-16T13:28:34;-1.20;99.90
50586;DHT22;36542;51.700;8.846;2022-12-16T13:31:19;-1.20;99.90
50586;DHT22;36542;51.700;8.846;2022-12-16T13:34:22;-1.20;99.90
50586;DHT22;36542;51.700;8.846;2022-12-16T13:37:24;-1.20;99.90
50586;DHT22;36542;51.700;8.846;2022-12-16T13:40:18;-1.20;99.90
50586;DHT22;36542;51.700;8.846;2022-12-16T13:43:03;-1.10;99.90
50586;DHT22;36542;51.700;8.846;2022-12-16T13:48:44;-1.20;99.90
50586;DHT22;36542;51.700;8.846;2022-12-16T13:51:54;-1.20;99.90
50586;DHT22;36542;51.700;8.846;2022-12-16T13:54:53;-1.10;99.90
50586;DHT22;36542;51.700;8.846;2022-12-16T13:57:42;-1.10;99.90
50586;DHT22;36542;51.700;8.846;2022-12-16T14:00:37;-1.10;99.90
50586;DHT22;36542;51.700;8.846;2022-12-16T14:03:32;-1.10;99.90
50586;DHT22;36542;51.700;8.846;2022-12-16T14:06:23;-1.10;99.90
50586;DHT22;36542;51.700;8.846;2022-12-16T14:09:23;-1.20;99.90
50586;DHT22;36542;51.700;8.846;2022-12-16T14:12:18;-1.30;99.90
50586;DHT22;36542;51.700;8.846;2022-12-16T14:15:14;-1.30;99.90
50586;DHT22;36542;51.700;8.846;2022-12-16T14:21:49;-1.30;99.90
50586;DHT22;36542;51.700;8.846;2022-12-16T14:24:37;-1.30;99.90
50586;DHT22;36542;51.700;8.846;2022-12-16T14:27:21;-1.30;99.90
50586;DHT22;36542;51.700;8.846;2022-12-16T14:30:22;-1.30;99.90
50586;DHT22;36542;51.700;8.846;2022-12-16T14:33:27;-1.40;99.90
50586;DHT22;36542;51.700;8.846;2022-12-16T14:36:21;-1.40;99.90
50586;DHT22;36542;51.700;8.846;2022-12-16T14:39:20;-1.50;99.90
50586;DHT22;36542;51.700;8.846;2022-12-16T14:44:59;-1.50;99.90
50586;DHT22;36542;51.700;8.846;2022-12-16T14:47:43;-1.60;99.90
50586;DHT22;36542;51.700;8.846;2022-12-16T14:50:28;-1.70;99.90
50586;DHT22;36542;51.700;8.846;2022-12-16T14:53:29;-1.80;99.90
50586;DHT22;36542;51.700;8.846;2022-12-16T14:56:21;-2.00;99.90
50586;DHT22;36542;51.700;8.846;2022-12-16T14:59:17;-2.10;99.90
50586;DHT22;36542;51.700;8.846;2022-12-16T15:05:09;-2.20;99.90
50586;DHT22;36542;51.700;8.846;2022-12-16T15:07:54;-2.30;99.90
50586;DHT22;36542;51.700;8.846;2022-12-16T15:10:38;-2.30;99.90
50586;DHT22;36542;51.700;8.846;2022-12-16T15:13:22;-2.40;99.90
50586;DHT22;36542;51.700;8.846;2022-12-16T15:16:15;-2.50;99.90
50586;DHT22;36542;51.700;8.846;2022-12-16T15:19:00;-2.50;99.90
50586;DHT22;36542;51.700;8.846;2022-12-16T15:21:46;-2.60;99.90
50586;DHT22;36542;51.700;8.846;2022-12-16T15:24:34;-2.70;99.90
50586;DHT22;36542;51.700;8.846;2022-12-16T15:30:34;-2.70;99.90
50586;DHT22;36542;51.700;8.846;2022-12-16T15:33:22;-2.80;99.90
50586;DHT22;36542;51.700;8.846;2022-12-16T15:39:18;-2.80;99.90
50586;DHT22;36542;51.700;8.846;2022-12-16T15:42:03;-2.80;99.90
50586;DHT22;36542;51.700;8.846;2022-12-16T15:44:49;-2.70;99.90
50586;DHT22;36542;51.700;8.846;2022-12-16T15:47:36;-2.70;99.90
50586;DHT22;36542;51.700;8.846;2022-12-16T15:50:28;-2.70;99.90
50586;DHT22;36542;51.700;8.846;2022-12-16T15:53:32;-2.80;99.90
50586;DHT22;36542;51.700;8.846;2022-12-16T15:56:40;-2.90;99.90
50586;DHT22;36542;51.700;8.846;2022-12-16T15:59:31;-3.00;99.90
50586;DHT22;36542;51.700;8.846;2022-12-16T16:05:17;-3.00;99.90
50586;DHT22;36542;51.700;8.846;2022-12-16T16:08:01;-3.10;99.90
50586;DHT22;36542;51.700;8.846;2022-12-16T16:10:45;-3.00;99.90
50586;DHT22;36542;51.700;8.846;2022-12-16T16:13:30;-3.00;99.90
50586;DHT22;36542;51.700;8.846;2022-12-16T16:16:14;-2.90;99.90
50586;DHT22;36542;51.700;8.846;2022-12-16T16:18:59;-2.90;99.90
50586;DHT22;36542;51.700;8.846;2022-12-16T16:21:43;-3.00;99.90
50586;DHT22;36542;51.700;8.846;2022-12-16T16:24:27;-3.10;99.90
50586;DHT22;36542;51.700;8.846;2022-12-16T16:30:33;-3.00;99.90
50586;DHT22;36542;51.700;8.846;2022-12-16T16:33:17;-2.90;99.90
50586;DHT22;36542;51.700;8.846;2022-12-16T16:36:11;-2.90;99.90
50586;DHT22;36542;51.700;8.846;2022-12-16T16:38:56;-3.00;99.90
50586;DHT22;36542;51.700;8.846;2022-12-16T16:41:40;-3.10;99.90
50586;DHT22;36542;51.700;8.846;2022-12-16T16:44:24;-3.30;99.90
50586;DHT22;36542;51.700;8.846;2022-12-16T16:47:15;-3.50;99.90
50586;DHT22;36542;51.700;8.846;2022-12-16T16:49:59;-3.80;99.90
50586;DHT22;36542;51.700;8.846;2022-12-16T16:52:43;-4.10;99.90
50586;DHT22;36542;51.700;8.846;2022-12-16T16:55:27;-4.20;99.90
50586;DHT22;36542;51.700;8.846;2022-12-16T16:58:22;-4.20;99.90
50586;DHT22;36542;51.700;8.846;2022-12-16T17:01:17;-4.10;99.90
50586;DHT22;36542;51.700;8.846;2022-12-16T17:04:02;-4.10;99.90
50586;DHT22;36542;51.700;8.846;2022-12-16T17:06:46;-4.00;99.90
50586;DHT22;36542;51.700;8.846;2022-12-16T17:09:31;-4.00;99.90
50586;DHT22;36542;51.700;8.846;2022-12-16T17:15:12;-4.50;99.90
50586;DHT22;36542;51.700;8.846;2022-12-16T17:17:56;-4.60;99.90
50586;DHT22;36542;51.700;8.846;2022-12-16T17:20:40;-4.70;99.90
50586;DHT22;36542;51.700;8.846;2022-12-16T17:23:24;-4.70;99.90
50586;DHT22;36542;51.700;8.846;2022-12-16T17:26:10;-4.70;99.90
50586;DHT22;36542;51.700;8.846;2022-12-16T17:28:54;-4.70;99.90
50586;DHT22;36542;51.700;8.846;2022-12-16T17:31:38;-4.80;99.90
50586;DHT22;36542;51.700;8.846;2022-12-16T17:34:22;-4.60;99.90
50586;DHT22;36542;51.700;8.846;2022-12-16T17:37:06;-4.50;99.90
50586;DHT22;36542;51.700;8.846;2022-12-16T17:39:50;-4.40;99.90
50586;DHT22;36542;51.700;8.846;2022-12-16T17:42:34;-4.30;99.90
50586;DHT22;36542;51.700;8.846;2022-12-16T17:45:18;-4.30;99.90
50586;DHT22;36542;51.700;8.846;2022-12-16T17:48:02;-4.30;99.90
50586;DHT22;36542;51.700;8.846;2022-12-16T17:50:46;-4.30;99.90
50586;DHT22;36542;51.700;8.846;2022-12-16T17:53:30;-4.20;99.90
50586;DHT22;36542;51.700;8.846;2022-12-16T17:56:15;-4.20;99.90
50586;DHT22;36542;51.700;8.846;2022-12-16T17:58:59;-4.20;99.90
50586;DHT22;36542;51.700;8.846;2022-12-16T18:01:43;-4.20;99.90
50586;DHT22;36542;51.700;8.846;2022-12-16T18:04:30;-4.40;99.90
50586;DHT22;36542;51.700;8.846;2022-12-16T18:07:14;-4.60;99.90
50586;DHT22;36542;51.700;8.846;2022-12-16T18:09:58;-4.70;99.90
50586;DHT22;36542;51.700;8.846;2022-12-16T18:12:42;-4.90;99.90
50586;DHT22;36542;51.700;8.846;2022-12-16T18:15:26;-5.00;99.90
50586;DHT22;36542;51.700;8.846;2022-12-16T18:18:10;-5.00;99.90
50586;DHT22;36542;51.700;8.846;2022-12-16T18:20:54;-4.90;99.90
50586;DHT22;36542;51.700;8.846;2022-12-16T18:23:41;-4.90;99.90
50586;DHT22;36542;51.700;8.846;2022-12-16T18:26:26;-4.90;99.90
50586;DHT22;36542;51.700;8.846;2022-12-16T18:29:10;-5.10;99.90
50586;DHT22;36542;51.700;8.846;2022-12-16T18:31:54;-5.40;99.90
50586;DHT22;36542;51.700;8.846;2022-12-16T18:34:38;-5.50;99.90
50586;DHT22;36542;51.700;8.846;2022-12-16T18:37:22;-5.50;99.90
50586;DHT22;36542;51.700;8.846;2022-12-16T18:40:07;-5.60;99.90
50586;DHT22;36542;51.700;8.846;2022-12-16T18:42:51;-5.50;99.90
50586;DHT22;36542;51.700;8.846;2022-12-16T18:45:35;-5.40;99.90
50586;DHT22;36542;51.700;8.846;2022-12-16T18:48:19;-5.20;99.90